San Antonio, Texas
Traffic Map
Current Weather Conditions
San Antonio, Texas
Overcast
Overcast
23°
Feels Like: 23°
Wind Chill: 23° Ceiling: 1000
Heat Index: 23° Visibility: 8mi
Dew Point: 21° Wind: 7mph
Humidity: 90% Direction: 120° (ESE)
Pressure: 30in Gusts: 0mph
Raw Report DataKSAT 221218Z 12006KT 8SM BKN010 BKN033 OVC250 23/21 A3000 RMK AO2 RAE07 VCSH NW-NE P0000 T02280211
Traffic Incident Summary
Active as of:
Severity:
Category:
InformationThere was an issue retrieving the traffic information for this location. Please try a different location or try again shortly.
Advertisements